THY3PH LOWW-LTFM
Flight info
| Callsign | THY3PH |
|---|---|
| Flight time | N/A |
| Altitude | 35000 |
| Route | EWUK1C/29 ARSIN NALOX BABIT ESIRI ETIDA T390 RILEX RILE1A LTFM |
| Aircraft | B738/M-SDE2E3FGHIRWXY/LB1 |
Departure
| Time | 2026-04-22 20:06 |
|---|---|
| Airport | Vienna International Airport (LOWW) |
Arrival
| Time | N/A |
|---|---|
| Airport | İstanbul Airport (LTFM) |
| Time | Latitude | Longitude | Altitude | Speed | Heading |
|---|---|---|---|---|---|
| 2026-04-22 19:43 | 48.12053 | 16.55628 | 8 ft | 0 kts | 116° |
| 2026-04-22 19:53 | 48.12054 | 16.55627 | 8 ft | 1 kts | 116° |
| 2026-04-22 19:53 | 48.12055 | 16.55624 | 8 ft | 2 kts | 116° |
| 2026-04-22 19:53 | 48.12059 | 16.55612 | 8 ft | 2 kts | 116° |
| 2026-04-22 19:54 | 48.12062 | 16.55601 | 8 ft | 2 kts | 116° |
| 2026-04-22 19:54 | 48.12063 | 16.55599 | 8 ft | 2 kts | 116° |
| 2026-04-22 19:54 | 48.12068 | 16.55584 | 8 ft | 2 kts | 136° |
| 2026-04-22 19:54 | 48.12076 | 16.55575 | 8 ft | 2 kts | 156° |
| 2026-04-22 19:55 | 48.12084 | 16.55571 | 8 ft | 2 kts | 172° |
| 2026-04-22 19:55 | 48.12091 | 16.55571 | 8 ft | 2 kts | 186° |
| 2026-04-22 19:55 | 48.12094 | 16.55571 | 8 ft | 2 kts | 192° |
| 2026-04-22 19:55 | 48.12100 | 16.55573 | 8 ft | 0 kts | 202° |
| 2026-04-22 19:56 | 48.12102 | 16.55574 | 8 ft | 1 kts | 206° |
| 2026-04-22 19:56 | 48.12107 | 16.55578 | 8 ft | 1 kts | 207° |
| 2026-04-22 19:56 | 48.12107 | 16.55579 | 8 ft | 0 kts | 207° |
| 2026-04-22 20:00 | 48.11960 | 16.55472 | 8 ft | 0 kts | 206° |
| 2026-04-22 20:00 | 48.11943 | 16.55460 | 8 ft | 7 kts | 205° |
| 2026-04-22 20:01 | 48.11883 | 16.55433 | 8 ft | 12 kts | 190° |
| 2026-04-22 20:01 | 48.11812 | 16.55448 | 8 ft | 16 kts | 138° |
| 2026-04-22 20:01 | 48.11769 | 16.55559 | 8 ft | 14 kts | 117° |
| 2026-04-22 20:01 | 48.11729 | 16.55680 | 8 ft | 21 kts | 116° |
| 2026-04-22 20:02 | 48.11679 | 16.55833 | 8 ft | 23 kts | 116° |
| 2026-04-22 20:02 | 48.11611 | 16.56040 | 8 ft | 30 kts | 115° |
| 2026-04-22 20:02 | 48.11554 | 16.56215 | 8 ft | 22 kts | 117° |
| 2026-04-22 20:02 | 48.11503 | 16.56372 | 8 ft | 25 kts | 116° |
| 2026-04-22 20:03 | 48.11445 | 16.56551 | 8 ft | 21 kts | 117° |
| 2026-04-22 20:03 | 48.11401 | 16.56685 | 8 ft | 23 kts | 115° |
| 2026-04-22 20:03 | 48.11363 | 16.56806 | 8 ft | 27 kts | 115° |
| 2026-04-22 20:03 | 48.11311 | 16.56964 | 8 ft | 13 kts | 117° |
| 2026-04-22 20:04 | 48.11272 | 16.57083 | 8 ft | 15 kts | 116° |
| 2026-04-22 20:04 | 48.11232 | 16.57195 | 8 ft | 11 kts | 129° |
| 2026-04-22 20:04 | 48.11175 | 16.57230 | 8 ft | 5 kts | 200° |
| 2026-04-22 20:04 | 48.11167 | 16.57226 | 8 ft | 1 kts | 203° |
| 2026-04-22 20:05 | 48.11146 | 16.57210 | 8 ft | 8 kts | 210° |
| 2026-04-22 20:05 | 48.11105 | 16.57167 | 8 ft | 14 kts | 223° |
| 2026-04-22 20:05 | 48.11080 | 16.57042 | 8 ft | 21 kts | 284° |
| 2026-04-22 20:05 | 48.11133 | 16.56853 | 8 ft | 59 kts | 298° |
| 2026-04-22 20:06 | 48.11292 | 16.56377 | 8 ft | 115 kts | 295° |
| 2026-04-22 20:06 | 48.11577 | 16.55483 | 128 ft | 165 kts | 296° |
| 2026-04-22 20:06 | 48.11836 | 16.54667 | 678 ft | 169 kts | 295° |
| 2026-04-22 20:06 | 48.12363 | 16.52922 | 1747 ft | 184 kts | 294° |
| 2026-04-22 20:07 | 48.12530 | 16.51554 | 2295 ft | 203 kts | 266° |
| 2026-04-22 20:07 | 48.12221 | 16.49942 | 2774 ft | 236 kts | 243° |
| 2026-04-22 20:07 | 48.11113 | 16.48073 | 3218 ft | 258 kts | 215° |
| 2026-04-22 20:07 | 48.09605 | 16.47177 | 3614 ft | 260 kts | 189° |
| 2026-04-22 20:08 | 48.08271 | 16.47239 | 3944 ft | 259 kts | 169° |
| 2026-04-22 20:08 | 48.07083 | 16.47633 | 4287 ft | 260 kts | 168° |
| 2026-04-22 20:08 | 48.06002 | 16.47961 | 4688 ft | 262 kts | 173° |
| 2026-04-22 20:08 | 48.04721 | 16.47841 | 5057 ft | 264 kts | 195° |
| 2026-04-22 20:09 | 48.03149 | 16.46585 | 5686 ft | 265 kts | 221° |
| 2026-04-22 20:09 | 48.01854 | 16.44942 | 6337 ft | 268 kts | 217° |
| 2026-04-22 20:09 | 48.00737 | 16.43831 | 6812 ft | 270 kts | 207° |
| 2026-04-22 20:09 | 47.99219 | 16.43253 | 7530 ft | 271 kts | 184° |
| 2026-04-22 20:10 | 47.97375 | 16.43578 | 8492 ft | 276 kts | 163° |
| 2026-04-22 20:10 | 47.95756 | 16.44815 | 9403 ft | 280 kts | 143° |
| 2026-04-22 20:10 | 47.94534 | 16.46728 | 10277 ft | 284 kts | 126° |
| 2026-04-22 20:10 | 47.93481 | 16.48509 | 11052 ft | 294 kts | 140° |
| 2026-04-22 20:11 | 47.91968 | 16.49967 | 11505 ft | 323 kts | 154° |
| 2026-04-22 20:11 | 47.89909 | 16.51298 | 12211 ft | 345 kts | 155° |
| 2026-04-22 20:11 | 47.87791 | 16.52797 | 13517 ft | 349 kts | 154° |
| 2026-04-22 20:11 | 47.85650 | 16.54357 | 14616 ft | 357 kts | 154° |
| 2026-04-22 20:12 | 47.83414 | 16.55990 | 15797 ft | 362 kts | 154° |
| 2026-04-22 20:12 | 47.81548 | 16.57352 | 16696 ft | 368 kts | 154° |
| 2026-04-22 20:12 | 47.80295 | 16.58265 | 17271 ft | 371 kts | 154° |
| 2026-04-22 20:12 | 47.78055 | 16.59898 | 18270 ft | 377 kts | 154° |
| 2026-04-22 20:13 | 47.75872 | 16.61486 | 19196 ft | 382 kts | 154° |
| 2026-04-22 20:13 | 47.73510 | 16.63204 | 20149 ft | 388 kts | 154° |
| 2026-04-22 20:13 | 47.71162 | 16.64910 | 21048 ft | 393 kts | 154° |
| 2026-04-22 20:13 | 47.69120 | 16.66392 | 21791 ft | 397 kts | 154° |
| 2026-04-22 20:14 | 47.66634 | 16.68194 | 22658 ft | 402 kts | 154° |
| 2026-04-22 20:14 | 47.64212 | 16.69948 | 23464 ft | 407 kts | 154° |
| 2026-04-22 20:14 | 47.61791 | 16.71701 | 24232 ft | 412 kts | 154° |
| 2026-04-22 20:14 | 47.59317 | 16.73489 | 24983 ft | 417 kts | 154° |
| 2026-04-22 20:15 | 47.56589 | 16.74947 | 25662 ft | 423 kts | 167° |
| 2026-04-22 20:15 | 47.54012 | 16.75502 | 26369 ft | 425 kts | 174° |
| 2026-04-22 20:15 | 47.52388 | 16.75724 | 26763 ft | 428 kts | 175° |
| 2026-04-22 20:15 | 47.50255 | 16.75964 | 27253 ft | 432 kts | 176° |
| 2026-04-22 20:16 | 47.48267 | 16.76168 | 27705 ft | 435 kts | 176° |
| 2026-04-22 20:16 | 47.46164 | 16.76375 | 28176 ft | 438 kts | 176° |
| 2026-04-22 20:16 | 47.43514 | 16.76632 | 28824 ft | 440 kts | 176° |
| 2026-04-22 20:16 | 47.40855 | 16.76888 | 29576 ft | 438 kts | 176° |
| 2026-04-22 20:17 | 47.38604 | 16.77104 | 30202 ft | 437 kts | 176° |
| 2026-04-22 20:17 | 47.35721 | 16.77380 | 30983 ft | 436 kts | 176° |
| 2026-04-22 20:17 | 47.32815 | 16.77658 | 31744 ft | 434 kts | 176° |
| 2026-04-22 20:17 | 47.30349 | 16.77893 | 32370 ft | 433 kts | 176° |
| 2026-04-22 20:18 | 47.27692 | 16.78147 | 33025 ft | 431 kts | 176° |
| 2026-04-22 20:18 | 47.24733 | 16.78429 | 33729 ft | 430 kts | 176° |
| 2026-04-22 20:18 | 47.21798 | 16.78708 | 34403 ft | 429 kts | 176° |
| 2026-04-22 20:18 | 47.19039 | 16.78971 | 34926 ft | 429 kts | 176° |
| 2026-04-22 20:19 | 47.16048 | 16.79255 | 34988 ft | 443 kts | 176° |
| 2026-04-22 20:19 | 47.13016 | 16.79543 | 35018 ft | 457 kts | 176° |
| 2026-04-22 20:19 | 47.10048 | 16.79824 | 35025 ft | 469 kts | 176° |
| 2026-04-22 20:20 | 47.03569 | 16.80437 | 35002 ft | 468 kts | 176° |
| 2026-04-22 20:20 | 46.97200 | 16.81056 | 35001 ft | 466 kts | 174° |
| 2026-04-22 20:21 | 46.91102 | 16.83445 | 35001 ft | 467 kts | 156° |
| 2026-04-22 20:21 | 46.86809 | 16.86681 | 35007 ft | 467 kts | 152° |
| 2026-04-22 20:22 | 46.82484 | 16.91101 | 35009 ft | 466 kts | 137° |
| 2026-04-22 20:22 | 46.79858 | 16.95408 | 35006 ft | 466 kts | 126° |
| 2026-04-22 20:23 | 46.77649 | 17.01079 | 35004 ft | 467 kts | 113° |
| 2026-04-22 20:23 | 46.75460 | 17.08489 | 35003 ft | 466 kts | 119° |
| 2026-04-22 20:24 | 46.72149 | 17.16396 | 35007 ft | 467 kts | 122° |
| 2026-04-22 20:24 | 46.67476 | 17.27169 | 35006 ft | 466 kts | 122° |
| 2026-04-22 20:25 | 46.60622 | 17.42874 | 35005 ft | 467 kts | 122° |
| 2026-04-22 20:25 | 46.53916 | 17.58154 | 35005 ft | 467 kts | 122° |